Time;durP1;ratioP1;P1;durP2;ratioP2;P2;SDS_P1;SDS_P2;PMS_P1;PMS_P2;Temp;Humidity;BMP_temperature;BMP_pressure;BME280_temperature;BME280_humidity;BME280_pressure;Samples;Min_cycle;Max_cycle;Signal;HPM_P1;HPM_P2
2022/06/09 00:01:02;;;;;;;21.08;15.85;;;15.90;99.90;;;;;;5054056;28;20025;-76
2022/06/09 00:03:35;;;;;;;21.63;16.88;;;15.90;99.90;;;;;;5054097;28;20112;-76
2022/06/09 00:06:01;;;;;;;20.75;14.70;;;15.90;99.90;;;;;;5053872;28;20049;-76
2022/06/09 00:08:29;;;;;;;18.67;15.25;;;15.90;99.90;;;;;;5054094;28;20023;-77
2022/06/09 00:11:00;;;;;;;18.30;13.95;;;15.90;99.90;;;;;;5055053;28;20021;-76
2022/06/09 00:13:26;;;;;;;16.48;12.98;;;15.90;99.90;;;;;;5062848;28;20016;-76
2022/06/09 00:15:52;;;;;;;18.23;12.98;;;16.00;99.90;;;;;;5074891;28;20036;-76
2022/06/09 00:18:18;;;;;;;16.90;12.88;;;16.00;99.90;;;;;;5075155;28;20016;-76
2022/06/09 00:20:43;;;;;;;19.25;13.98;;;16.10;99.90;;;;;;5074988;28;20401;-76
2022/06/09 00:23:12;;;;;;;16.30;13.05;;;16.00;99.90;;;;;;5074920;28;20099;-77
2022/06/09 00:25:37;;;;;;;16.50;13.00;;;16.10;99.90;;;;;;5068200;28;20025;-76
2022/06/09 00:28:03;;;;;;;16.02;12.40;;;16.10;99.90;;;;;;5054960;28;20071;-76
2022/06/09 00:30:29;;;;;;;14.70;12.73;;;16.20;99.90;;;;;;5055127;28;20035;-76
2022/06/09 00:32:54;;;;;;;14.20;12.70;;;16.20;99.90;;;;;;5057403;28;20048;-76
2022/06/09 00:35:21;;;;;;;13.85;12.43;;;16.20;99.90;;;;;;5073550;28;20478;-76
2022/06/09 00:37:47;;;;;;;14.10;10.90;;;16.20;99.90;;;;;;5052837;28;20403;-77
2022/06/09 00:40:14;;;;;;;16.23;11.73;;;16.30;99.90;;;;;;5052655;28;20032;-77
2022/06/09 00:42:40;;;;;;;14.55;11.18;;;16.20;99.90;;;;;;5052500;28;20017;-76
2022/06/09 00:45:24;;;;;;;13.35;11.45;;;16.30;99.90;;;;;;5052462;28;20021;-77
2022/06/09 00:47:51;;;;;;;15.68;11.13;;;16.20;99.90;;;;;;5052347;28;20036;-76
2022/06/09 00:50:21;;;;;;;14.13;12.55;;;16.20;99.90;;;;;;5054000;28;20106;-76
2022/06/09 00:52:56;;;;;;;14.73;12.65;;;16.20;99.90;;;;;;5053332;28;20490;-76
2022/06/09 00:55:24;;;;;;;17.02;13.27;;;16.20;99.90;;;;;;5053055;28;20087;-75
2022/06/09 00:57:54;;;;;;;15.45;12.50;;;16.20;99.90;;;;;;5052993;28;20115;-77
2022/06/09 01:00:24;;;;;;;15.43;12.75;;;16.20;99.90;;;;;;5054273;28;20036;-76
2022/06/09 01:02:55;;;;;;;15.52;13.50;;;16.30;99.90;;;;;;5053129;28;20032;-77
2022/06/09 01:05:23;;;;;;;16.08;13.95;;;16.30;99.90;;;;;;5052631;28;20025;-76
2022/06/09 01:07:53;;;;;;;15.43;12.55;;;16.20;99.90;;;;;;5054269;28;20107;-76
2022/06/09 01:10:19;;;;;;;17.48;12.80;;;16.30;99.90;;;;;;5052820;28;20505;-76
2022/06/09 01:12:47;;;;;;;16.70;13.25;;;16.30;99.90;;;;;;5053836;28;20029;-76
2022/06/09 01:15:16;;;;;;;16.23;13.75;;;16.30;99.90;;;;;;5054001;28;20120;-76
2022/06/09 01:18:04;;;;;;;15.73;12.65;;;16.20;99.90;;;;;;5052580;28;20024;-76
2022/06/09 01:20:48;;;;;;;25.92;15.45;;;16.20;99.90;;;;;;5052628;28;20036;-75
2022/06/09 01:23:22;;;;;;;27.30;16.63;;;16.10;99.90;;;;;;5052462;28;20124;-76
2022/06/09 01:26:22;;;;;;;21.77;12.23;;;16.00;99.90;;;;;;5060713;28;20499;-75
2022/06/09 01:29:09;;;;;;;13.48;5.22;;;15.90;99.90;;;;;;5072507;28;20371;-74
2022/06/09 01:31:55;;;;;;;10.25;4.68;;;15.80;99.90;;;;;;5072366;28;20017;-75
2022/06/09 01:34:40;;;;;;;10.98;5.82;;;15.70;99.90;;;;;;5073558;28;20386;-75
2022/06/09 01:37:14;;;;;;;11.98;6.95;;;15.70;99.90;;;;;;5072227;28;20048;-76
2022/06/09 01:39:53;;;;;;;11.32;7.00;;;15.80;99.90;;;;;;5073671;28;20023;-76
2022/06/09 01:42:23;;;;;;;12.48;8.00;;;15.80;99.90;;;;;;5072171;28;20470;-75
2022/06/09 01:44:51;;;;;;;14.15;9.32;;;15.80;99.90;;;;;;5073459;28;20025;-76
2022/06/09 01:47:21;;;;;;;13.35;10.02;;;15.90;99.90;;;;;;5073401;28;20363;-76
2022/06/09 01:49:52;;;;;;;15.00;11.38;;;15.80;99.90;;;;;;5073456;28;20367;-75
2022/06/09 01:52:19;;;;;;;18.20;11.73;;;15.80;99.90;;;;;;5073455;28;20012;-76
2022/06/09 01:54:46;;;;;;;10.65;8.88;;;15.80;99.90;;;;;;5073498;28;20040;-75
2022/06/09 01:57:27;;;;;;;9.98;8.18;;;15.70;99.90;;;;;;5072076;28;20021;-75
2022/06/09 02:00:06;;;;;;;9.57;6.80;;;15.70;99.90;;;;;;5073232;28;20028;-76
2022/06/09 02:02:41;;;;;;;6.45;5.30;;;15.70;99.90;;;;;;5073103;28;20386;-76
2022/06/09 02:05:29;;;;;;;7.07;4.80;;;15.70;99.90;;;;;;5073324;28;20013;-75
2022/06/09 02:07:59;;;;;;;7.20;5.32;;;15.60;99.90;;;;;;5087719;28;20536;-76
2022/06/09 02:10:32;;;;;;;7.15;5.28;;;15.60;99.90;;;;;;5071609;28;20031;-76
2022/06/09 02:13:12;;;;;;;5.50;4.82;;;15.60;99.90;;;;;;5068513;28;20146;-75
2022/06/09 02:15:47;;;;;;;7.65;4.80;;;15.60;99.90;;;;;;5053079;28;20040;-75
2022/06/09 02:18:16;;;;;;;5.28;4.60;;;15.60;99.90;;;;;;5053246;28;20028;-75
2022/06/09 02:20:47;;;;;;;4.88;4.47;;;15.60;99.90;;;;;;5051774;28;20029;-75
2022/06/09 02:23:13;;;;;;;5.07;4.57;;;15.60;99.90;;;;;;5053152;28;20029;-76
2022/06/09 02:25:39;;;;;;;6.15;4.85;;;15.60;99.90;;;;;;5059276;28;20029;-76
2022/06/09 02:28:07;;;;;;;5.47;4.72;;;15.60;99.90;;;;;;5071663;28;20103;-75
2022/06/09 02:30:36;;;;;;;6.47;4.53;;;15.60;99.90;;;;;;5073139;28;20024;-75
2022/06/09 02:33:03;;;;;;;6.30;5.32;;;15.70;99.90;;;;;;5072940;28;20386;-75
2022/06/09 02:35:28;;;;;;;6.82;4.57;;;15.70;99.90;;;;;;5073044;28;20117;-75
2022/06/09 02:37:54;;;;;;;4.53;4.07;;;15.70;99.90;;;;;;5072922;28;20024;-75
2022/06/09 02:40:20;;;;;;;4.78;4.35;;;15.70;99.90;;;;;;5076310;28;20036;-76
2022/06/09 02:42:46;;;;;;;6.40;4.68;;;15.70;99.90;;;;;;5076806;28;20066;-76
2022/06/09 02:45:14;;;;;;;5.43;4.50;;;15.70;99.90;;;;;;5076958;28;20048;-75
2022/06/09 02:47:40;;;;;;;5.53;3.65;;;15.70;99.90;;;;;;5076741;28;20028;-75
2022/06/09 02:50:06;;;;;;;7.93;4.75;;;15.70;99.90;;;;;;5076660;28;20070;-74
2022/06/09 02:52:32;;;;;;;3.85;3.47;;;15.70;99.90;;;;;;5075264;28;20024;-76
2022/06/09 02:54:57;;;;;;;6.68;4.00;;;15.60;99.90;;;;;;5076493;28;20041;-76
2022/06/09 02:57:23;;;;;;;5.38;4.25;;;15.60;99.90;;;;;;5075490;28;20021;-75
2022/06/09 02:59:50;;;;;;;5.68;3.30;;;15.60;99.90;;;;;;5075236;28;20055;-75
2022/06/09 03:02:17;;;;;;;5.53;4.40;;;15.60;99.90;;;;;;5076592;28;20020;-75
2022/06/09 03:04:42;;;;;;;4.50;4.10;;;15.60;99.90;;;;;;5076314;28;20024;-75
2022/06/09 03:07:08;;;;;;;5.18;3.55;;;15.60;99.90;;;;;;5075153;28;20041;-75
2022/06/09 03:09:33;;;;;;;4.95;4.00;;;15.60;99.90;;;;;;5076266;28;20146;-76
2022/06/09 03:11:59;;;;;;;4.95;3.50;;;15.70;99.90;;;;;;5074992;28;20028;-76
2022/06/09 03:14:25;;;;;;;7.85;3.95;;;15.60;99.90;;;;;;5059294;28;20029;-76
2022/06/09 03:16:50;;;;;;;3.55;3.25;;;15.60;99.90;;;;;;5054890;28;20115;-75
2022/06/09 03:19:18;;;;;;;4.25;3.45;;;15.60;99.90;;;;;;5056120;28;20021;-76
2022/06/09 03:21:43;;;;;;;3.83;3.50;;;15.60;99.90;;;;;;5056191;28;20388;-75
2022/06/09 03:24:09;;;;;;;5.15;3.85;;;15.60;99.90;;;;;;5054837;28;20047;-75
2022/06/09 03:26:34;;;;;;;4.80;4.05;;;15.60;99.90;;;;;;5068958;28;20032;-75
2022/06/09 03:29:00;;;;;;;5.13;4.07;;;15.60;99.90;;;;;;5075931;28;20027;-76
2022/06/09 03:31:26;;;;;;;4.68;4.03;;;15.60;99.90;;;;;;5074807;28;20059;-75
2022/06/09 03:33:51;;;;;;;4.65;4.20;;;15.50;99.90;;;;;;5075889;28;20025;-75
2022/06/09 03:36:17;;;;;;;5.75;4.18;;;15.50;99.90;;;;;;5074502;28;20032;-75
2022/06/09 03:38:43;;;;;;;4.90;4.40;;;15.50;99.90;;;;;;5074439;28;20016;-75
2022/06/09 03:41:09;;;;;;;5.90;4.95;;;15.50;99.90;;;;;;5074465;28;20115;-75
2022/06/09 03:43:35;;;;;;;5.00;4.53;;;15.50;99.90;;;;;;5074469;28;20024;-76
2022/06/09 03:46:02;;;;;;;6.03;4.88;;;15.50;99.90;;;;;;5074597;28;20036;-75
2022/06/09 03:48:28;;;;;;;5.32;4.85;;;15.50;99.90;;;;;;5069506;28;20014;-75
2022/06/09 03:50:54;;;;;;;6.88;4.90;;;15.50;99.90;;;;;;5057828;28;20028;-75
2022/06/09 03:53:20;;;;;;;5.28;4.35;;;15.50;99.90;;;;;;5061179;28;20017;-76
2022/06/09 03:55:46;;;;;;;5.03;4.55;;;15.50;99.90;;;;;;5053398;28;20041;-76
2022/06/09 03:58:12;;;;;;;5.90;4.05;;;15.50;99.90;;;;;;5054953;28;20111;-75
2022/06/09 04:00:37;;;;;;;4.22;3.83;;;15.60;99.90;;;;;;5054669;28;20431;-75
2022/06/09 04:03:03;;;;;;;4.60;3.92;;;15.60;99.90;;;;;;5054665;28;20390;-76
2022/06/09 04:05:31;;;;;;;4.45;3.60;;;15.70;99.90;;;;;;5054437;28;20608;-77
2022/06/09 04:07:59;;;;;;;4.38;3.65;;;15.80;99.90;;;;;;5053272;28;20029;-75
2022/06/09 04:10:28;;;;;;;5.00;4.18;;;16.00;99.90;;;;;;5054104;28;20052;-76
2022/06/09 04:12:54;;;;;;;6.10;3.85;;;16.10;99.90;;;;;;5055135;28;20083;-75
2022/06/09 04:15:20;;;;;;;5.13;3.72;;;16.20;99.90;;;;;;5063157;28;20514;-76
2022/06/09 04:17:47;;;;;;;4.88;4.05;;;16.40;99.90;;;;;;5074487;28;20051;-75
2022/06/09 04:20:15;;;;;;;5.32;3.78;;;16.40;99.90;;;;;;5072928;28;20033;-76
2022/06/09 04:22:41;;;;;;;5.22;3.65;;;16.40;99.90;;;;;;5072890;28;20038;-76
2022/06/09 04:25:07;;;;;;;5.80;4.25;;;16.40;99.90;;;;;;5071959;28;20020;-75
2022/06/09 04:27:33;;;;;;;4.75;4.00;;;16.30;99.90;;;;;;5054391;28;20379;-75
2022/06/09 04:29:58;;;;;;;6.68;4.70;;;16.20;99.90;;;;;;5054845;28;20028;-76
2022/06/09 04:32:24;;;;;;;7.80;5.18;;;16.30;99.90;;;;;;5053315;28;20552;-77
2022/06/09 04:34:50;;;;;;;5.82;4.88;;;16.40;99.90;;;;;;5052153;28;20597;-77
2022/06/09 04:37:16;;;;;;;4.78;4.30;;;16.40;99.90;;;;;;5053923;28;20394;-75
2022/06/09 04:39:42;;;;;;;6.20;5.60;;;16.50;99.90;;;;;;5054307;28;20024;-75
2022/06/09 04:42:08;;;;;;;5.70;4.85;;;16.60;99.90;;;;;;5054515;28;20021;-76
2022/06/09 04:44:34;;;;;;;7.72;5.20;;;16.70;99.90;;;;;;5052936;28;20021;-75
2022/06/09 04:47:00;;;;;;;5.45;4.95;;;16.90;99.90;;;;;;5054453;28;20104;-77
2022/06/09 04:49:26;;;;;;;5.68;4.75;;;17.10;99.90;;;;;;5052692;28;20033;-77
2022/06/09 04:51:52;;;;;;;4.57;4.00;;;17.10;99.90;;;;;;5052163;28;20090;-77
2022/06/09 04:54:18;;;;;;;4.90;4.43;;;17.20;99.90;;;;;;5064191;28;20479;-77
2022/06/09 04:56:43;;;;;;;4.53;4.13;;;17.10;99.90;;;;;;5053354;28;20033;-77
2022/06/09 04:59:09;;;;;;;5.00;4.32;;;17.20;99.90;;;;;;5052397;28;20029;-77
2022/06/09 05:01:35;;;;;;;5.20;3.95;;;17.20;99.90;;;;;;5052431;28;20092;-77
2022/06/09 05:04:01;;;;;;;3.95;3.60;;;17.30;99.90;;;;;;5053385;28;20375;-77
2022/06/09 05:06:28;;;;;;;4.15;3.75;;;17.40;99.90;;;;;;5058837;28;20051;-76
2022/06/09 05:08:56;;;;;;;3.35;3.05;;;17.40;99.90;;;;;;5073676;28;20479;-75
2022/06/09 05:11:23;;;;;;;3.80;3.42;;;17.50;99.90;;;;;;5072415;28;20032;-76
2022/06/09 05:13:49;;;;;;;4.32;3.28;;;17.40;99.90;;;;;;5059330;28;20025;-77
2022/06/09 05:16:16;;;;;;;4.00;3.40;;;17.40;99.90;;;;;;5052367;28;20033;-76
2022/06/09 05:18:42;;;;;;;2.95;2.72;;;17.50;99.90;;;;;;5054303;28;20039;-76
2022/06/09 05:21:09;;;;;;;4.82;3.10;;;17.50;99.90;;;;;;5062314;28;20075;-76
2022/06/09 05:23:36;;;;;;;3.22;2.95;;;17.60;99.90;;;;;;5054511;28;20057;-77
2022/06/09 05:26:03;;;;;;;3.15;2.75;;;17.80;99.90;;;;;;5064400;28;20470;-76
2022/06/09 05:28:30;;;;;;;3.22;2.97;;;17.90;99.90;;;;;;5060073;28;20367;-75
2022/06/09 05:30:56;;;;;;;3.33;3.10;;;18.00;99.90;;;;;;5063359;28;20029;-75
2022/06/09 05:33:22;;;;;;;3.10;2.83;;;18.20;99.90;;;;;;5065061;28;20044;-75
2022/06/09 05:35:48;;;;;;;3.78;3.15;;;18.30;99.90;;;;;;5059193;28;20040;-75
2022/06/09 05:46:32;;;;;;;5.38;3.55;;;18.90;99.90;;;;;;5051961;28;20505;-75
2022/06/09 05:48:58;;;;;;;4.03;3.20;;;18.90;99.90;;;;;;5067992;28;20044;-75
2022/06/09 05:51:23;;;;;;;5.30;3.53;;;19.10;99.90;;;;;;5061182;28;20028;-75
2022/06/09 05:53:49;;;;;;;3.72;3.42;;;19.20;99.90;;;;;;5061644;28;20094;-75
2022/06/09 05:56:16;;;;;;;5.75;3.25;;;19.30;99.90;;;;;;5050529;28;20458;-75
2022/06/09 05:58:42;;;;;;;3.60;3.30;;;19.40;99.90;;;;;;5051999;28;20048;-75
2022/06/09 06:01:11;;;;;;;5.18;4.03;;;19.60;99.90;;;;;;5050524;28;20398;-77
2022/06/09 06:03:37;;;;;;;4.97;3.75;;;19.60;99.90;;;;;;5052639;28;20102;-76
2022/06/09 06:08:48;;;;;;;4.93;4.53;;;19.80;99.90;;;;;;5052093;28;20043;-76
2022/06/09 06:11:14;;;;;;;4.97;3.97;;;19.80;99.90;;;;;;5051845;28;20017;-76
2022/06/09 06:13:41;;;;;;;4.82;4.32;;;19.70;99.90;;;;;;5062309;28;20107;-77
2022/06/09 06:16:07;;;;;;;5.30;4.78;;;19.90;99.90;;;;;;5080225;28;20128;-77
2022/06/09 06:18:33;;;;;;;5.47;4.95;;;19.90;99.90;;;;;;5053551;28;20104;-76
2022/06/09 06:20:59;;;;;;;5.00;4.50;;;20.10;99.90;;;;;;5062048;28;20025;-76
2022/06/09 06:23:25;;;;;;;4.63;4.22;;;20.30;99.90;;;;;;5051714;28;20025;-77
2022/06/09 06:25:56;;;;;;;5.30;4.65;;;20.30;99.90;;;;;;5050520;28;20393;-76
2022/06/09 06:28:22;;;;;;;5.68;5.05;;;20.30;99.90;;;;;;5052435;28;20040;-76
2022/06/09 06:30:49;;;;;;;6.20;5.57;;;20.30;99.90;;;;;;5058294;28;20086;-76
2022/06/09 06:33:15;;;;;;;5.80;5.20;;;20.50;99.90;;;;;;5053685;28;20066;-76
2022/06/09 06:35:40;;;;;;;6.57;5.88;;;20.50;99.90;;;;;;5072725;28;20071;-76
2022/06/09 06:38:06;;;;;;;5.65;4.90;;;20.70;99.90;;;;;;5071902;28;20044;-77
2022/06/09 06:40:32;;;;;;;6.05;4.80;;;21.00;99.90;;;;;;5070507;28;20099;-76
2022/06/09 06:42:57;;;;;;;6.43;5.63;;;21.20;99.90;;;;;;5071725;28;20020;-76
2022/06/09 06:45:23;;;;;;;5.43;4.70;;;21.30;99.90;;;;;;5070426;28;20021;-76
2022/06/09 06:47:49;;;;;;;6.38;4.85;;;21.40;99.90;;;;;;5070303;28;20103;-76
2022/06/09 06:50:15;;;;;;;5.18;4.78;;;21.50;99.90;;;;;;5069869;28;20028;-76
2022/06/09 06:52:41;;;;;;;5.60;5.05;;;21.50;99.90;;;;;;5070393;28;20024;-76
2022/06/09 06:55:08;;;;;;;6.03;5.40;;;21.40;99.90;;;;;;5070707;28;20120;-76
2022/06/09 06:57:34;;;;;;;6.97;4.93;;;21.40;99.90;;;;;;5070282;28;20056;-76
2022/06/09 07:00:00;;;;;;;6.38;5.40;;;21.30;99.90;;;;;;5070338;28;20055;-76
2022/06/09 07:02:26;;;;;;;5.55;5.05;;;21.10;99.90;;;;;;5071614;28;20370;-76
2022/06/09 07:04:52;;;;;;;7.93;5.72;;;21.10;99.90;;;;;;5071576;28;20017;-76
2022/06/09 07:07:17;;;;;;;6.85;6.10;;;21.00;99.90;;;;;;5072594;28;20098;-76
2022/06/09 07:09:43;;;;;;;6.72;5.97;;;21.10;99.90;;;;;;5072731;28;20028;-76
2022/06/09 07:12:10;;;;;;;9.10;6.43;;;21.10;99.90;;;;;;5071364;28;20132;-76
2022/06/09 07:14:35;;;;;;;7.18;6.47;;;21.20;99.90;;;;;;5052900;28;20032;-75
2022/06/09 07:17:01;;;;;;;7.25;6.28;;;21.30;99.90;;;;;;5052560;28;20025;-76
2022/06/09 07:19:29;;;;;;;8.88;6.55;;;21.30;99.90;;;;;;5062380;28;20102;-76
2022/06/09 07:21:56;;;;;;;8.73;6.53;;;21.40;99.90;;;;;;5071350;28;20043;-76
2022/06/09 07:24:22;;;;;;;6.63;5.95;;;21.50;99.90;;;;;;5072660;28;20024;-76
2022/06/09 07:26:48;;;;;;;7.13;6.53;;;21.60;99.90;;;;;;5061621;28;20024;-76
2022/06/09 07:29:14;;;;;;;10.55;7.30;;;21.50;99.90;;;;;;5056077;28;20021;-76
2022/06/09 07:31:40;;;;;;;8.52;7.50;;;21.60;99.90;;;;;;5054599;28;20115;-75
2022/06/09 07:34:07;;;;;;;8.45;7.55;;;21.60;99.90;;;;;;5055960;28;20391;-76
2022/06/09 07:36:32;;;;;;;8.60;7.80;;;21.60;99.90;;;;;;5054696;28;20494;-76
2022/06/09 07:38:58;;;;;;;11.48;9.00;;;21.70;99.90;;;;;;5054524;28;20024;-76
2022/06/09 07:41:24;;;;;;;12.43;9.18;;;21.80;99.90;;;;;;5054531;28;20033;-76
2022/06/09 07:43:51;;;;;;;12.20;8.93;;;21.90;99.90;;;;;;5054585;28;20378;-76
2022/06/09 07:46:18;;;;;;;8.93;7.57;;;22.00;99.50;;;;;;5054531;28;20017;-76
2022/06/09 07:48:47;;;;;;;8.43;7.63;;;22.30;99.90;;;;;;5055592;28;20375;-76
2022/06/09 07:51:13;;;;;;;11.70;9.27;;;22.50;99.90;;;;;;5054304;28;20025;-76
2022/06/09 07:53:39;;;;;;;9.68;8.68;;;22.60;99.90;;;;;;5055541;28;20094;-76
2022/06/09 07:56:05;;;;;;;9.70;8.70;;;22.60;99.90;;;;;;5054325;28;20036;-76
2022/06/09 07:58:31;;;;;;;11.82;9.77;;;22.60;99.90;;;;;;5055588;28;20021;-76
2022/06/09 08:00:56;;;;;;;11.35;9.95;;;22.60;99.60;;;;;;5054269;28;20036;-76
2022/06/09 08:03:26;;;;;;;11.95;10.00;;;22.60;98.80;;;;;;5053892;28;20394;-76
2022/06/09 08:05:53;;;;;;;11.35;9.85;;;22.60;99.50;;;;;;5053966;28;20498;-76
2022/06/09 08:08:20;;;;;;;11.52;10.32;;;22.50;99.90;;;;;;5055178;28;20103;-76
2022/06/09 08:10:47;;;;;;;10.60;9.48;;;22.60;99.90;;;;;;5054691;28;20032;-76
2022/06/09 08:13:14;;;;;;;11.98;10.55;;;22.50;99.90;;;;;;5052986;28;20056;-76
2022/06/09 08:15:43;;;;;;;12.52;11.23;;;22.60;99.90;;;;;;5054382;28;20090;-76
2022/06/09 08:18:08;;;;;;;12.55;11.18;;;22.50;99.90;;;;;;5054650;28;20478;-76
2022/06/09 08:20:36;;;;;;;12.50;11.27;;;22.50;99.90;;;;;;5073933;28;20039;-76
2022/06/09 08:23:05;;;;;;;14.68;11.85;;;22.30;99.90;;;;;;5059545;28;20580;-76
2022/06/09 08:25:31;;;;;;;13.70;12.30;;;22.40;99.90;;;;;;5055088;28;20025;-76
2022/06/09 08:27:57;;;;;;;13.18;11.77;;;22.40;99.90;;;;;;5053470;28;20080;-76
2022/06/09 08:30:23;;;;;;;15.00;13.50;;;22.40;99.90;;;;;;5053315;28;20036;-76
2022/06/09 08:32:49;;;;;;;14.52;12.90;;;22.40;99.90;;;;;;5055055;28;20025;-76
2022/06/09 08:35:16;;;;;;;15.65;13.20;;;22.50;99.90;;;;;;5053436;28;20056;-75
2022/06/09 08:37:48;;;;;;;16.15;14.48;;;22.50;99.90;;;;;;5054741;28;20096;-76
2022/06/09 08:40:19;;;;;;;16.27;14.57;;;22.50;99.90;;;;;;5053543;28;20017;-76
2022/06/09 08:42:48;;;;;;;17.67;15.35;;;22.70;99.90;;;;;;5053434;28;20025;-76
2022/06/09 08:45:23;;;;;;;16.30;13.55;;;22.70;99.90;;;;;;5054709;28;20031;-76
2022/06/09 08:47:54;;;;;;;16.27;14.23;;;22.70;99.90;;;;;;5054597;28;20088;-76
2022/06/09 08:51:04;;;;;;;16.30;14.45;;;22.70;99.90;;;;;;5054583;28;20091;-76
2022/06/09 08:53:38;;;;;;;17.27;14.25;;;22.80;99.90;;;;;;4957597;28;20038;-76
2022/06/09 08:56:21;;;;;;;20.67;16.05;;;23.10;99.90;;;;;;5047995;28;20132;-76
2022/06/09 08:59:12;;;;;;;16.15;14.45;;;23.20;99.90;;;;;;5054563;28;20028;-76
2022/06/09 09:01:46;;;;;;;15.70;14.15;;;23.30;99.90;;;;;;5054462;28;20433;-75
2022/06/09 09:04:22;;;;;;;17.95;16.05;;;23.30;99.70;;;;;;5052940;28;20021;-76
2022/06/09 09:07:20;;;;;;;16.08;14.40;;;23.30;96.90;;;;;;5054309;28;20060;-76
2022/06/09 09:09:47;;;;;;;18.00;16.20;;;23.40;97.50;;;;;;5027385;28;20076;-76
2022/06/09 09:12:16;;;;;;;16.58;14.27;;;23.40;96.00;;;;;;5053413;28;20061;-76
2022/06/09 09:14:47;;;;;;;16.98;15.15;;;23.30;96.30;;;;;;5072567;28;20115;-76
2022/06/09 09:17:21;;;;;;;16.63;14.57;;;23.40;98.50;;;;;;5074213;28;20040;-76
2022/06/09 09:19:54;;;;;;;16.35;14.75;;;23.60;94.70;;;;;;5059444;28;20025;-75
2022/06/09 09:22:27;;;;;;;16.70;15.00;;;23.90;94.30;;;;;;5052860;28;20029;-76
2022/06/09 09:25:38;;;;;;;17.10;15.35;;;23.80;90.20;;;;;;5052569;28;20025;-76
2022/06/09 09:28:15;;;;;;;17.13;15.15;;;23.80;88.20;;;;;;5032258;28;20507;-76
2022/06/09 09:30:59;;;;;;;17.83;14.10;;;23.70;90.30;;;;;;5052501;28;20035;-76
2022/06/09 09:33:26;;;;;;;15.90;14.40;;;23.70;92.00;;;;;;5052433;28;20021;-76
2022/06/09 09:36:02;;;;;;;19.48;15.13;;;23.40;92.90;;;;;;5053726;28;20116;-76
2022/06/09 09:38:38;;;;;;;15.70;14.10;;;23.60;92.90;;;;;;5053678;28;20052;-76
2022/06/09 09:41:04;;;;;;;16.02;14.55;;;23.80;92.80;;;;;;5052740;28;20025;-76
2022/06/09 09:43:40;;;;;;;16.38;14.77;;;23.80;90.80;;;;;;5053700;28;20040;-76
2022/06/09 09:46:22;;;;;;;15.90;13.60;;;24.00;92.40;;;;;;5052669;28;20027;-76
2022/06/09 09:48:48;;;;;;;16.00;14.30;;;24.30;89.70;;;;;;5051848;28;20032;-76
2022/06/09 09:51:14;;;;;;;14.65;13.15;;;24.20;90.10;;;;;;5053566;28;20025;-76
2022/06/09 09:53:53;;;;;;;16.25;14.57;;;24.00;88.50;;;;;;5052308;28;20025;-76
2022/06/09 09:56:19;;;;;;;17.88;15.55;;;23.90;85.60;;;;;;5053473;28;20040;-76
2022/06/09 09:58:47;;;;;;;16.40;14.18;;;24.00;86.40;;;;;;5051877;28;20029;-76
2022/06/09 10:01:22;;;;;;;17.83;13.30;;;24.10;85.70;;;;;;5051949;28;20029;-76
2022/06/09 10:09:48;;;;;;;19.13;15.60;;;24.70;80.70;;;;;;5053197;28;20044;-76
2022/06/09 10:12:23;;;;;;;15.32;13.82;;;24.80;79.40;;;;;;5054399;28;20021;-76
2022/06/09 10:15:08;;;;;;;17.90;13.45;;;25.10;78.90;;;;;;5071782;28;20044;-76
2022/06/09 10:17:51;;;;;;;13.75;12.30;;;25.40;77.80;;;;;;5072120;28;20027;-76
2022/06/09 10:20:25;;;;;;;14.52;13.13;;;25.40;73.30;;;;;;5055058;28;20025;-75
2022/06/09 10:23:16;;;;;;;14.30;12.80;;;25.00;75.70;;;;;;5051865;28;20024;-75
2022/06/09 10:26:02;;;;;;;14.13;12.50;;;25.00;74.30;;;;;;5057119;28;20368;-76
2022/06/09 10:28:58;;;;;;;14.27;12.90;;;25.30;75.70;;;;;;5051871;28;20475;-76
2022/06/09 10:31:41;;;;;;;11.85;10.82;;;25.70;73.30;;;;;;5053060;28;20025;-75
2022/06/09 10:34:45;;;;;;;12.38;11.27;;;26.00;67.00;;;;;;5051640;28;20407;-75
2022/06/09 10:37:36;;;;;;;12.77;11.50;;;26.20;64.70;;;;;;5052947;28;20036;-75
2022/06/09 10:40:14;;;;;;;11.48;10.23;;;26.30;65.60;;;;;;5051644;28;20033;-75
2022/06/09 10:43:02;;;;;;;11.82;10.70;;;26.40;63.70;;;;;;5052983;28;20094;-76
2022/06/09 10:45:53;;;;;;;11.88;10.73;;;26.50;63.70;;;;;;5051613;28;20053;-75
2022/06/09 10:55:16;;;;;;;13.60;11.65;;;26.00;66.00;;;;;;5052823;28;20501;-75
2022/06/09 10:58:01;;;;;;;13.05;11.75;;;25.90;67.10;;;;;;4972231;28;20034;-75
2022/06/09 11:00:36;;;;;;;14.15;12.65;;;25.70;73.80;;;;;;5068573;28;20061;-75
2022/06/09 11:03:11;;;;;;;13.40;11.98;;;25.50;77.40;;;;;;5056615;28;20020;-75
2022/06/09 11:05:54;;;;;;;13.75;11.85;;;25.40;76.80;;;;;;5055001;28;20044;-75
2022/06/09 11:08:44;;;;;;;14.50;12.57;;;25.30;77.50;;;;;;5056629;28;20040;-76
2022/06/09 11:11:15;;;;;;;16.55;13.70;;;25.20;81.20;;;;;;5056413;28;20029;-76
2022/06/09 11:13:44;;;;;;;13.95;12.68;;;25.20;83.40;;;;;;5069670;28;20113;-76
2022/06/09 11:16:20;;;;;;;15.25;13.85;;;25.60;83.90;;;;;;5074931;28;20115;-76
2022/06/09 11:18:54;;;;;;;14.00;12.60;;;25.70;81.30;;;;;;5069525;28;20036;-76
2022/06/09 11:22:10;;;;;;;13.50;12.20;;;25.60;77.30;;;;;;5056520;28;20036;-76
2022/06/09 11:25:04;;;;;;;14.73;13.15;;;25.90;74.70;;;;;;4991519;28;20023;-76
2022/06/09 11:27:58;;;;;;;14.80;13.40;;;25.90;78.30;;;;;;5055063;28;20037;-75
2022/06/09 11:30:41;;;;;;;15.18;13.07;;;26.10;77.10;;;;;;5054212;28;20021;-75
2022/06/09 11:33:30;;;;;;;13.93;12.57;;;25.80;76.70;;;;;;5055341;28;20025;-76
2022/06/09 11:36:12;;;;;;;15.57;14.07;;;25.90;74.50;;;;;;5055294;28;20487;-75
2022/06/09 11:38:51;;;;;;;18.10;12.75;;;26.00;73.70;;;;;;5056028;28;20478;-76
2022/06/09 11:41:46;;;;;;;14.38;12.88;;;26.10;74.10;;;;;;5055424;28;20056;-76
2022/06/09 11:44:30;;;;;;;13.30;12.02;;;26.00;74.00;;;;;;5053635;28;20115;-75
2022/06/09 11:47:02;;;;;;;14.32;12.60;;;26.20;71.40;;;;;;5054550;28;20503;-76
2022/06/09 11:49:38;;;;;;;13.95;12.65;;;26.30;71.00;;;;;;5054497;28;20094;-75
2022/06/09 11:52:10;;;;;;;15.25;11.77;;;26.20;71.10;;;;;;5054481;28;20028;-75
2022/06/09 11:54:48;;;;;;;13.45;12.07;;;26.20;71.60;;;;;;5054448;28;20453;-75
2022/06/09 11:57:17;;;;;;;13.77;12.30;;;26.50;71.70;;;;;;5055745;28;20032;-76
2022/06/09 12:00:21;;;;;;;14.73;12.32;;;26.60;70.60;;;;;;5055756;28;20028;-76
2022/06/09 12:02:53;;;;;;;13.65;11.98;;;26.70;69.20;;;;;;5054329;28;20036;-75
2022/06/09 12:05:37;;;;;;;14.15;12.15;;;26.90;69.00;;;;;;5055290;28;20107;-75
2022/06/09 12:08:21;;;;;;;13.23;11.80;;;27.00;69.90;;;;;;5054200;28;20025;-75
2022/06/09 12:11:32;;;;;;;11.63;10.52;;;27.40;69.80;;;;;;5054728;28;20086;-75
2022/06/09 12:14:24;;;;;;;12.90;11.68;;;27.60;67.00;;;;;;5049546;28;20118;-75
2022/06/09 12:16:59;;;;;;;13.23;12.02;;;27.70;64.60;;;;;;5053967;28;20037;-75
2022/06/09 12:19:51;;;;;;;12.07;10.88;;;27.40;65.70;;;;;;5055235;28;20044;-76
2022/06/09 12:22:40;;;;;;;12.40;11.30;;;27.40;67.00;;;;;;5053900;28;20040;-76
2022/06/09 12:25:08;;;;;;;12.73;11.52;;;27.20;65.60;;;;;;5045222;28;20116;-76
2022/06/09 12:27:36;;;;;;;12.32;11.18;;;27.60;67.10;;;;;;5053596;28;20558;-76
2022/06/09 12:30:02;;;;;;;14.82;11.25;;;27.40;66.00;;;;;;5053674;28;20029;-76
2022/06/09 12:32:43;;;;;;;12.13;10.93;;;27.40;65.90;;;;;;5053645;28;20021;-76
2022/06/09 12:35:40;;;;;;;12.63;11.25;;;27.00;66.60;;;;;;5054898;28;20421;-76
2022/06/09 12:38:19;;;;;;;12.30;11.20;;;26.90;64.40;;;;;;5070257;28;20542;-76
2022/06/09 12:41:01;;;;;;;13.52;10.70;;;26.90;64.00;;;;;;5054931;28;20486;-76
2022/06/09 12:43:40;;;;;;;12.20;11.05;;;26.90;64.70;;;;;;5054754;28;20544;-76
2022/06/09 12:46:25;;;;;;;11.38;10.35;;;27.00;64.20;;;;;;5070120;28;20486;-75
2022/06/09 12:48:53;;;;;;;11.52;10.43;;;26.80;63.40;;;;;;5054672;28;20095;-76
2022/06/09 12:51:31;;;;;;;11.77;10.75;;;27.10;65.50;;;;;;5054634;28;20017;-75
2022/06/09 12:54:06;;;;;;;13.40;10.77;;;27.40;64.70;;;;;;5054654;28;20021;-76
2022/06/09 12:56:39;;;;;;;11.82;10.32;;;27.60;65.60;;;;;;5069736;28;20037;-76
2022/06/09 12:59:20;;;;;;;12.13;11.02;;;27.90;66.60;;;;;;5069834;28;20068;-76
2022/06/09 13:02:00;;;;;;;13.02;11.05;;;27.90;63.20;;;;;;5053061;28;20031;-76
2022/06/09 13:04:28;;;;;;;10.95;9.88;;;27.80;62.30;;;;;;5054506;28;20057;-76
2022/06/09 13:06:56;;;;;;;11.60;10.60;;;27.80;65.20;;;;;;5054181;28;20084;-76
2022/06/09 13:09:30;;;;;;;12.05;10.88;;;27.30;63.00;;;;;;5054276;28;20126;-75
2022/06/09 13:14:51;;;;;;;11.10;10.10;;;27.10;63.30;;;;;;5054412;28;20040;-76
2022/06/09 13:17:21;;;;;;;12.40;10.60;;;26.90;62.90;;;;;;5054094;28;20025;-76
2022/06/09 13:20:03;;;;;;;13.45;10.23;;;27.00;64.30;;;;;;5069379;28;20040;-76
2022/06/09 13:22:29;;;;;;;12.35;11.32;;;26.80;64.90;;;;;;5073223;28;20078;-76
2022/06/09 13:24:56;;;;;;;13.65;11.25;;;26.60;67.60;;;;;;5073915;28;20029;-76